Time;durP1;ratioP1;P1;durP2;ratioP2;P2;SDS_P1;SDS_P2;PMS_P1;PMS_P2;Temp;Humidity;BMP_temperature;BMP_pressure;BME280_temperature;BME280_humidity;BME280_pressure;Samples;Min_cycle;Max_cycle;Signal;HPM_P1;HPM_P2
2022/03/19 00:01:42;;;;;;;43.83;26.40;;;;;;;2.68;87.91;103397.63;4999655;28;20062;-70
2022/03/19 00:04:07;;;;;;;41.40;23.52;;;;;;;2.67;87.36;103401.00;5002725;28;20041;-70
2022/03/19 00:06:38;;;;;;;42.60;24.77;;;;;;;2.68;87.63;103406.34;5010359;28;20496;-71
2022/03/19 00:09:05;;;;;;;42.88;25.40;;;;;;;2.71;87.57;103401.34;5000243;28;20042;-70
2022/03/19 00:11:31;;;;;;;43.97;23.75;;;;;;;2.76;87.55;103406.91;4998895;28;20114;-70
2022/03/19 00:13:56;;;;;;;45.50;24.55;;;;;;;2.81;87.65;103409.03;5000878;28;20061;-71
2022/03/19 00:16:22;;;;;;;32.42;20.75;;;;;;;2.83;87.77;103412.66;5013624;28;20061;-70
2022/03/19 00:18:47;;;;;;;37.35;21.00;;;;;;;2.90;87.74;103413.09;5002363;28;20100;-70
2022/03/19 00:21:13;;;;;;;31.77;18.98;;;;;;;3.01;88.39;103406.94;4999410;28;20480;-70
2022/03/19 00:23:38;;;;;;;33.72;19.00;;;;;;;3.13;87.69;103407.81;5001059;28;20124;-70
2022/03/19 00:26:04;;;;;;;32.80;19.30;;;;;;;3.16;86.77;103400.19;5001086;28;20026;-70
2022/03/19 00:28:29;;;;;;;38.60;18.83;;;;;;;3.26;86.76;103414.78;4999587;28;20503;-70
2022/03/19 00:30:54;;;;;;;33.10;16.38;;;;;;;3.29;86.43;103410.69;5001903;28;20045;-72
2022/03/19 00:33:20;;;;;;;29.02;16.77;;;;;;;3.37;85.24;103408.59;4999923;28;20038;-72
2022/03/19 00:35:47;;;;;;;29.65;15.32;;;;;;;3.43;84.90;103409.03;5000574;28;20041;-72
2022/03/19 00:38:12;;;;;;;25.17;14.63;;;;;;;3.46;84.41;103410.97;5001107;28;20125;-72
2022/03/19 00:40:38;;;;;;;23.33;13.30;;;;;;;3.44;84.19;103409.94;4998516;28;20065;-71
2022/03/19 00:43:03;;;;;;;28.05;13.55;;;;;;;3.45;83.99;103412.63;5001532;28;20037;-72
2022/03/19 00:45:28;;;;;;;22.90;14.18;;;;;;;3.48;83.60;103412.88;5018397;27;20046;-72
2022/03/19 00:47:54;;;;;;;26.50;14.57;;;;;;;3.49;83.52;103406.84;5017945;28;20057;-72
2022/03/19 00:50:20;;;;;;;27.80;13.65;;;;;;;3.51;83.75;103407.88;5031893;28;20037;-72
2022/03/19 00:52:45;;;;;;;24.02;13.43;;;;;;;3.58;82.79;103408.28;5031302;28;20038;-71
2022/03/19 00:55:10;;;;;;;23.67;12.27;;;;;;;3.59;82.89;103421.44;5009282;28;20025;-72
2022/03/19 00:57:46;;;;;;;21.33;12.35;;;;;;;3.69;81.91;103416.06;5041662;28;20407;-72
2022/03/19 01:00:13;;;;;;;20.77;11.20;;;;;;;3.79;81.43;103414.94;5011146;28;20042;-72
2022/03/19 01:02:41;;;;;;;22.73;11.50;;;;;;;3.91;80.82;103415.78;5021735;28;20038;-72
2022/03/19 01:05:08;;;;;;;22.40;11.77;;;;;;;3.97;80.07;103419.63;5014783;28;20049;-71
2022/03/19 01:07:41;;;;;;;21.42;12.18;;;;;;;4.04;80.08;103422.75;4998900;28;20034;-71
2022/03/19 01:10:07;;;;;;;20.27;10.65;;;;;;;4.16;79.95;103422.63;5037604;28;20024;-71
2022/03/19 01:12:32;;;;;;;19.90;9.73;;;;;;;4.23;80.18;103413.50;5029098;28;20049;-72
2022/03/19 01:14:57;;;;;;;21.80;9.95;;;;;;;4.37;79.98;103410.97;5027947;28;20055;-72
2022/03/19 01:17:23;;;;;;;21.00;9.15;;;;;;;4.50;79.86;103417.00;5020717;28;20119;-71
2022/03/19 01:19:54;;;;;;;19.10;8.82;;;;;;;4.57;79.09;103416.59;5007887;28;20074;-72
2022/03/19 01:22:24;;;;;;;14.75;8.57;;;;;;;4.69;79.26;103411.25;5015847;28;20026;-72
2022/03/19 01:24:50;;;;;;;17.15;7.95;;;;;;;4.75;79.00;103402.09;5039965;28;20062;-71
2022/03/19 01:27:16;;;;;;;20.75;9.10;;;;;;;4.79;78.44;103409.34;5011805;28;20530;-72
2022/03/19 01:29:41;;;;;;;20.23;8.38;;;;;;;4.89;78.09;103404.66;5007324;28;20030;-72
2022/03/19 01:32:07;;;;;;;19.05;7.20;;;;;;;4.97;77.81;103400.81;5022688;28;20045;-72
2022/03/19 01:34:33;;;;;;;17.27;7.95;;;;;;;5.00;78.17;103398.38;5008980;28;20026;-71
2022/03/19 01:36:58;;;;;;;17.45;8.00;;;;;;;5.02;77.92;103392.44;5051743;28;20073;-71
2022/03/19 01:39:23;;;;;;;15.00;6.82;;;;;;;5.13;77.27;103395.72;5020403;28;20049;-72
2022/03/19 01:41:48;;;;;;;16.33;7.03;;;;;;;5.14;77.65;103388.78;5018874;28;20058;-72
2022/03/19 01:44:21;;;;;;;17.05;7.22;;;;;;;5.11;76.98;103383.34;5033095;28;20033;-71
2022/03/19 01:47:01;;;;;;;17.05;6.65;;;;;;;5.08;77.45;103386.66;5015898;28;20038;-71
2022/03/19 01:49:27;;;;;;;18.55;6.32;;;;;;;5.10;77.32;103385.06;5005278;28;20064;-71
2022/03/19 01:51:54;;;;;;;13.57;6.03;;;;;;;5.14;76.79;103376.59;5006983;28;20519;-72
2022/03/19 01:54:28;;;;;;;16.75;6.75;;;;;;;5.21;76.63;103376.19;5000176;28;20030;-72
2022/03/19 01:56:55;;;;;;;17.05;6.30;;;;;;;5.22;76.49;103375.34;5041081;28;20031;-72
2022/03/19 01:59:24;;;;;;;14.38;6.47;;;;;;;5.29;76.38;103371.38;5029180;27;20022;-72
2022/03/19 02:01:52;;;;;;;18.92;6.28;;;;;;;5.40;76.07;103375.56;5004356;28;20036;-72
2022/03/19 02:04:18;;;;;;;19.90;6.40;;;;;;;5.44;75.74;103374.94;5013260;28;20411;-71
2022/03/19 02:06:45;;;;;;;20.40;7.63;;;;;;;5.44;75.94;103379.28;5010785;28;20026;-71
2022/03/19 02:09:10;;;;;;;13.63;6.15;;;;;;;5.43;75.26;103377.47;5009433;28;20072;-71
2022/03/19 02:11:36;;;;;;;15.90;6.78;;;;;;;5.45;75.10;103379.38;5012002;28;20434;-72
2022/03/19 02:14:02;;;;;;;14.02;6.45;;;;;;;5.37;75.13;103367.53;5025960;28;20435;-72
2022/03/19 02:16:27;;;;;;;20.98;7.22;;;;;;;5.29;75.59;103371.38;5020946;28;20026;-71
2022/03/19 02:18:53;;;;;;;20.23;8.13;;;;;;;5.22;76.01;103358.75;5004907;28;20658;-71
2022/03/19 02:21:18;;;;;;;18.10;7.90;;;;;;;5.16;76.11;103363.59;5021657;28;20045;-72
2022/03/19 02:26:45;;;;;;;19.25;8.30;;;;;;;5.00;76.38;103361.75;5012331;28;20412;-72
2022/03/19 02:29:11;;;;;;;15.60;8.20;;;;;;;4.92;76.60;103358.66;5004900;28;20046;-72
2022/03/19 02:31:41;;;;;;;17.90;7.85;;;;;;;4.88;76.74;103361.91;5007684;28;20030;-72
2022/03/19 02:34:10;;;;;;;18.30;7.97;;;;;;;4.78;77.64;103360.41;5021889;28;20423;-72
2022/03/19 02:36:36;;;;;;;22.05;8.40;;;;;;;4.80;77.81;103353.56;5022402;28;20121;-72
2022/03/19 02:39:18;;;;;;;18.60;8.05;;;;;;;4.83;77.54;103351.13;5006031;28;20060;-72
2022/03/19 02:41:49;;;;;;;16.88;7.95;;;;;;;4.82;77.54;103357.19;5007882;28;20030;-72
2022/03/19 02:44:16;;;;;;;20.63;8.68;;;;;;;4.74;77.74;103354.88;5025079;28;20044;-72
2022/03/19 02:46:44;;;;;;;21.55;7.20;;;;;;;4.68;77.85;103347.56;5017349;28;20029;-71
2022/03/19 02:49:09;;;;;;;18.05;7.60;;;;;;;4.60;77.86;103348.78;5015701;28;20103;-72
2022/03/19 02:51:36;;;;;;;19.15;7.57;;;;;;;4.55;78.02;103350.19;5000790;28;20038;-72
2022/03/19 02:54:03;;;;;;;19.05;7.20;;;;;;;4.45;78.53;103353.94;5019029;28;20405;-72
2022/03/19 02:56:30;;;;;;;15.95;6.95;;;;;;;4.31;79.16;103354.78;5001195;28;20038;-72
2022/03/19 02:58:56;;;;;;;19.35;6.40;;;;;;;4.26;79.20;103349.25;5018399;28;20030;-72
2022/03/19 03:01:21;;;;;;;18.73;6.68;;;;;;;4.16;79.07;103349.44;5016869;28;20396;-71
2022/03/19 03:03:48;;;;;;;19.92;7.00;;;;;;;4.07;79.26;103343.63;5027791;28;20107;-71
2022/03/19 03:06:14;;;;;;;19.58;7.00;;;;;;;3.98;79.98;103343.00;5002319;28;20531;-71
2022/03/19 03:08:40;;;;;;;15.68;6.40;;;;;;;3.87;79.82;103335.38;5004098;28;20026;-71
2022/03/19 03:11:05;;;;;;;21.98;7.68;;;;;;;3.81;80.18;103327.13;5003677;28;20059;-72
2022/03/19 03:13:30;;;;;;;20.45;6.75;;;;;;;3.71;80.46;103327.31;5025128;28;20049;-71
2022/03/19 03:15:57;;;;;;;20.63;6.80;;;;;;;3.64;80.70;103338.16;5049327;28;20062;-71
2022/03/19 03:18:22;;;;;;;16.83;6.00;;;;;;;3.54;81.59;103338.34;5021186;28;20510;-72
2022/03/19 03:20:47;;;;;;;18.73;7.00;;;;;;;3.43;81.70;103322.88;5004478;28;20034;-71
2022/03/19 03:23:14;;;;;;;22.48;7.40;;;;;;;3.32;82.50;103336.00;5008741;28;20529;-71
2022/03/19 03:25:39;;;;;;;17.17;6.25;;;;;;;3.18;83.15;103324.63;5001002;28;20046;-72
2022/03/19 03:28:05;;;;;;;17.05;8.30;;;;;;;3.12;83.48;103337.22;5023549;28;20082;-72
2022/03/19 03:30:30;;;;;;;18.80;6.47;;;;;;;3.01;83.81;103324.38;5004189;28;20034;-72
2022/03/19 03:32:55;;;;;;;15.57;6.75;;;;;;;2.90;84.25;103320.09;5024769;28;20108;-72
2022/03/19 03:35:25;;;;;;;31.80;8.32;;;;;;;2.79;84.97;103324.56;5036602;28;20033;-72
2022/03/19 03:37:51;;;;;;;17.00;7.05;;;;;;;2.73;84.66;103331.97;5007825;28;20123;-71
2022/03/19 03:40:18;;;;;;;16.58;6.30;;;;;;;2.66;84.84;103329.69;5024367;28;20049;-71
2022/03/19 03:42:44;;;;;;;19.50;6.13;;;;;;;2.59;85.52;103320.56;5025010;28;20069;-71
2022/03/19 03:45:10;;;;;;;15.05;6.10;;;;;;;2.56;85.20;103327.25;5003213;28;20068;-71
2022/03/19 03:47:35;;;;;;;20.25;6.97;;;;;;;2.46;85.83;103330.88;5027051;28;20163;-71
2022/03/19 03:50:00;;;;;;;16.83;6.53;;;;;;;2.39;86.01;103328.66;5024089;28;20512;-71
2022/03/19 03:52:26;;;;;;;14.88;6.18;;;;;;;2.31;86.32;103325.50;5008443;28;20522;-71
2022/03/19 03:54:52;;;;;;;24.17;6.93;;;;;;;2.17;87.53;103332.31;5021296;28;20035;-71
2022/03/19 03:57:18;;;;;;;16.77;6.47;;;;;;;2.21;87.13;103329.94;5020292;28;20065;-71
2022/03/19 03:59:43;;;;;;;20.95;7.63;;;;;;;2.15;87.47;103330.41;5037119;28;20042;-71
2022/03/19 04:02:08;;;;;;;18.42;6.40;;;;;;;2.10;87.64;103326.53;5017141;28;20041;-71
2022/03/19 04:04:34;;;;;;;20.63;6.57;;;;;;;2.05;87.97;103327.91;5020510;28;20029;-71
2022/03/19 04:06:59;;;;;;;17.95;7.32;;;;;;;2.04;87.76;103323.47;5039310;28;20036;-71
2022/03/19 04:09:24;;;;;;;20.20;7.03;;;;;;;2.01;87.78;103328.47;5003158;28;20038;-71
2022/03/19 04:11:50;;;;;;;21.83;6.93;;;;;;;1.95;88.00;103324.59;5019314;28;20054;-71
2022/03/19 04:14:15;;;;;;;29.05;8.05;;;;;;;1.89;88.34;103328.47;5020112;28;20022;-71
2022/03/19 04:16:40;;;;;;;15.50;6.07;;;;;;;1.86;87.94;103317.81;5029936;28;20041;-71
2022/03/19 04:19:06;;;;;;;16.05;5.80;;;;;;;1.83;88.40;103320.19;5013600;28;20103;-71
2022/03/19 04:21:31;;;;;;;21.33;6.50;;;;;;;1.79;87.94;103321.66;5034709;28;20022;-71
2022/03/19 04:23:56;;;;;;;23.33;7.07;;;;;;;1.72;89.04;103320.28;5015399;28;20357;-71
2022/03/19 04:26:22;;;;;;;17.92;6.22;;;;;;;1.72;88.46;103315.09;5024283;28;20505;-72
2022/03/19 04:28:47;;;;;;;19.92;6.30;;;;;;;1.64;89.06;103316.22;5028030;28;20112;-72
2022/03/19 04:31:13;;;;;;;20.83;6.28;;;;;;;1.63;89.52;103309.22;5009908;28;20069;-72
2022/03/19 04:33:38;;;;;;;16.13;6.35;;;;;;;1.61;90.01;103317.69;5027067;28;20079;-72
2022/03/19 04:39:08;;;;;;;17.13;7.32;;;;;;;1.52;89.94;103315.31;4984604;28;20032;-71
2022/03/19 04:41:36;;;;;;;26.83;8.13;;;;;;;1.49;90.02;103308.19;4981407;28;20035;-72
2022/03/19 04:44:03;;;;;;;23.05;6.85;;;;;;;1.48;90.11;103315.88;4985665;28;20132;-72
2022/03/19 04:46:28;;;;;;;30.77;9.07;;;;;;;1.43;90.39;103318.13;5002433;28;20086;-71
2022/03/19 04:48:54;;;;;;;17.65;7.25;;;;;;;1.40;90.45;103314.38;5030820;28;20042;-72
2022/03/19 04:51:21;;;;;;;27.85;7.88;;;;;;;1.35;90.10;103313.13;5006568;28;20030;-72
2022/03/19 04:53:50;;;;;;;18.90;7.57;;;;;;;1.33;90.35;103319.91;5017899;28;20038;-72
2022/03/19 04:56:18;;;;;;;20.50;7.68;;;;;;;1.29;90.72;103321.38;5003829;28;20063;-71
2022/03/19 04:58:43;;;;;;;22.77;6.80;;;;;;;1.23;90.53;103316.63;5032633;28;20042;-71
2022/03/19 05:01:09;;;;;;;22.40;6.72;;;;;;;1.20;89.77;103318.97;5028107;28;20289;-72
2022/03/19 05:03:34;;;;;;;25.50;7.55;;;;;;;1.16;90.31;103321.22;5001766;28;20038;-71
2022/03/19 05:06:00;;;;;;;20.50;6.55;;;;;;;1.13;89.98;103320.97;5004891;28;20498;-71
2022/03/19 05:08:25;;;;;;;21.50;7.13;;;;;;;1.12;90.89;103320.06;5006598;28;20041;-72
2022/03/19 05:13:35;;;;;;;25.63;7.35;;;;;;;1.06;90.69;103317.91;5005124;28;20034;-72
2022/03/19 05:16:01;;;;;;;20.05;6.95;;;;;;;0.98;89.79;103318.13;5010008;28;20129;-71
2022/03/19 05:18:26;;;;;;;20.73;6.90;;;;;;;0.93;90.39;103325.56;5001135;28;20075;-72
2022/03/19 05:20:53;;;;;;;19.48;7.38;;;;;;;0.96;90.67;103319.69;5008626;28;20030;-72
2022/03/19 05:23:18;;;;;;;17.90;7.43;;;;;;;0.95;90.37;103325.69;5000223;28;20086;-72
2022/03/19 05:25:43;;;;;;;21.88;7.72;;;;;;;0.96;90.59;103324.88;5000076;28;20407;-71
2022/03/19 05:28:09;;;;;;;18.35;6.60;;;;;;;0.99;90.54;103320.81;4998555;28;20038;-71
2022/03/19 05:30:37;;;;;;;20.05;7.93;;;;;;;1.04;91.03;103322.09;5000868;28;20037;-71
2022/03/19 05:33:03;;;;;;;24.23;7.90;;;;;;;1.11;90.75;103325.19;4998879;28;20041;-72
2022/03/19 05:35:28;;;;;;;26.35;8.40;;;;;;;1.12;90.64;103324.38;4999257;28;20034;-72
2022/03/19 05:37:53;;;;;;;23.98;8.45;;;;;;;1.08;90.59;103320.66;5000636;28;20037;-72
2022/03/19 05:40:19;;;;;;;20.33;7.57;;;;;;;1.10;90.44;103321.63;5000038;28;20073;-72
2022/03/19 05:42:45;;;;;;;23.50;8.32;;;;;;;1.17;90.48;103316.13;5007786;28;20038;-72
2022/03/19 05:45:10;;;;;;;23.58;7.80;;;;;;;1.23;90.23;103321.81;5011490;28;20026;-72
2022/03/19 05:47:39;;;;;;;22.83;7.68;;;;;;;1.29;90.35;103316.19;5006913;28;20072;-72
2022/03/19 05:50:06;;;;;;;25.70;8.98;;;;;;;1.40;90.35;103314.38;5013146;28;20034;-71
2022/03/19 05:52:32;;;;;;;24.65;7.65;;;;;;;1.43;90.28;103317.22;5040176;28;20083;-71
2022/03/19 05:54:57;;;;;;;27.38;9.20;;;;;;;1.48;89.50;103308.06;5018000;28;20479;-72
2022/03/19 05:57:22;;;;;;;18.88;7.65;;;;;;;1.52;90.15;103307.50;5000232;28;20031;-72
2022/03/19 05:59:48;;;;;;;24.52;8.75;;;;;;;1.57;90.33;103313.03;5008481;28;20031;-72
2022/03/19 06:02:13;;;;;;;25.50;7.88;;;;;;;1.60;90.14;103314.19;5004036;28;20087;-72
2022/03/19 06:04:39;;;;;;;27.92;8.75;;;;;;;1.71;89.25;103313.28;4997420;28;20046;-72
2022/03/19 06:07:04;;;;;;;27.13;8.60;;;;;;;1.78;88.86;103316.34;4996883;28;20080;-72
2022/03/19 06:09:30;;;;;;;21.98;7.90;;;;;;;1.80;89.18;103322.56;4998578;28;20044;-72
2022/03/19 06:11:55;;;;;;;24.27;8.18;;;;;;;1.83;89.00;103323.69;4995458;28;20125;-71
2022/03/19 06:14:20;;;;;;;23.50;8.52;;;;;;;1.94;88.32;103316.69;4998275;28;20034;-72
2022/03/19 06:16:46;;;;;;;18.30;7.13;;;;;;;1.99;88.50;103315.31;4997259;28;20060;-72
2022/03/19 06:19:11;;;;;;;23.33;7.95;;;;;;;2.05;87.51;103313.19;4997035;28;20038;-72
2022/03/19 06:21:40;;;;;;;22.10;8.45;;;;;;;2.09;87.60;103315.19;4996614;28;20046;-72
2022/03/19 06:24:07;;;;;;;20.48;7.93;;;;;;;2.16;87.48;103312.25;4997845;28;20042;-72
2022/03/19 06:26:33;;;;;;;18.85;7.57;;;;;;;2.23;86.96;103312.69;4998952;28;20450;-72
2022/03/19 06:28:59;;;;;;;21.17;8.95;;;;;;;2.19;87.76;103315.06;4999832;28;20469;-72
2022/03/19 06:31:24;;;;;;;23.63;8.68;;;;;;;2.27;87.37;103317.34;4997159;28;20044;-72
2022/03/19 06:33:50;;;;;;;19.27;7.28;;;;;;;2.33;87.08;103313.47;4999914;28;20499;-72
2022/03/19 06:39:00;;;;;;;20.75;7.68;;;;;;;2.53;86.50;103316.59;4998209;28;20042;-72
2022/03/19 06:41:26;;;;;;;23.65;7.95;;;;;;;2.62;86.36;103318.16;4998974;28;20030;-72
2022/03/19 06:43:52;;;;;;;21.98;8.25;;;;;;;2.74;85.64;103322.41;5001005;28;20045;-72
2022/03/19 06:46:17;;;;;;;30.27;8.80;;;;;;;2.80;85.30;103309.81;4996902;28;20100;-72
2022/03/19 06:48:46;;;;;;;20.15;7.47;;;;;;;2.84;85.22;103310.13;4999376;28;20039;-72
2022/03/19 06:51:12;;;;;;;17.67;6.65;;;;;;;2.91;84.82;103305.31;5006031;28;20060;-72
2022/03/19 06:53:38;;;;;;;22.10;8.93;;;;;;;3.02;84.76;103304.38;5011009;28;20030;-72
2022/03/19 06:56:05;;;;;;;21.52;7.88;;;;;;;3.08;84.16;103300.47;4999992;28;20034;-72
2022/03/19 06:58:32;;;;;;;29.30;8.20;;;;;;;3.18;83.83;103296.81;5012865;28;20530;-72
2022/03/19 07:00:58;;;;;;;21.17;8.30;;;;;;;3.27;83.58;103292.22;4997745;28;20171;-72
2022/03/19 07:03:24;;;;;;;21.33;8.23;;;;;;;3.30;83.25;103286.28;5007472;28;20014;-72
2022/03/19 07:05:49;;;;;;;27.58;7.88;;;;;;;3.37;83.04;103285.91;5002755;28;20034;-72
2022/03/19 07:08:15;;;;;;;17.75;8.13;;;;;;;3.41;82.81;103290.53;5000280;28;20037;-72
2022/03/19 07:10:40;;;;;;;21.35;7.15;;;;;;;3.49;82.48;103298.88;5005701;28;20026;-72
2022/03/19 07:13:06;;;;;;;23.27;8.20;;;;;;;3.57;82.54;103292.47;5006245;28;20053;-72
2022/03/19 07:15:31;;;;;;;16.95;7.13;;;;;;;3.68;82.75;103293.19;5005215;28;20034;-71
2022/03/19 07:18:00;;;;;;;19.65;7.47;;;;;;;3.82;82.53;103289.75;5009450;28;20033;-72
2022/03/19 07:20:27;;;;;;;15.95;6.55;;;;;;;3.88;81.63;103290.16;4999013;28;20034;-72
2022/03/19 07:22:54;;;;;;;17.50;6.55;;;;;;;3.94;81.71;103280.09;4999410;28;20044;-72
2022/03/19 07:25:24;;;;;;;15.68;6.38;;;;;;;4.04;81.44;103280.72;5003174;28;20042;-71
2022/03/19 07:27:51;;;;;;;17.33;7.20;;;;;;;4.14;81.06;103293.56;5004534;28;20037;-72
2022/03/19 07:30:17;;;;;;;24.27;7.45;;;;;;;4.19;80.26;103292.13;5008292;28;20048;-72
2022/03/19 07:32:42;;;;;;;18.83;7.18;;;;;;;4.22;80.24;103292.34;5010998;28;20130;-71
2022/03/19 07:35:08;;;;;;;26.20;7.03;;;;;;;4.24;80.17;103301.16;5002461;28;20106;-71
2022/03/19 07:37:34;;;;;;;16.52;6.47;;;;;;;4.28;79.81;103299.69;5000527;28;20456;-72
2022/03/19 07:40:02;;;;;;;18.33;7.25;;;;;;;4.42;79.89;103300.53;4998021;28;20034;-72
2022/03/19 07:42:28;;;;;;;14.73;6.70;;;;;;;4.58;79.53;103295.47;5003119;28;20037;-72
2022/03/19 07:44:53;;;;;;;20.65;7.25;;;;;;;4.71;78.84;103305.88;5005995;28;20124;-72
2022/03/19 07:47:19;;;;;;;18.15;7.18;;;;;;;4.82;78.74;103304.84;5016664;28;20034;-72
2022/03/19 07:49:44;;;;;;;16.83;6.93;;;;;;;4.92;78.46;103300.16;5013141;28;20135;-71
2022/03/19 07:52:10;;;;;;;19.15;7.07;;;;;;;5.06;77.94;103304.56;5009737;28;20034;-72
2022/03/19 07:54:36;;;;;;;17.45;6.95;;;;;;;5.12;77.76;103304.00;5014857;28;20034;-72
2022/03/19 07:57:06;;;;;;;19.77;7.22;;;;;;;5.05;76.22;103307.97;5015056;28;20048;-72
2022/03/19 07:59:32;;;;;;;20.55;7.35;;;;;;;5.09;76.70;103304.72;5010578;28;20034;-72
2022/03/19 08:01:58;;;;;;;21.20;6.97;;;;;;;5.08;76.54;103296.78;5007156;28;20033;-72
2022/03/19 08:04:23;;;;;;;17.67;7.32;;;;;;;5.24;76.77;103308.28;5008741;28;20052;-72
2022/03/19 08:06:53;;;;;;;17.67;7.47;;;;;;;5.49;75.90;103301.88;5004554;28;20042;-72
2022/03/19 08:09:19;;;;;;;20.08;7.55;;;;;;;5.69;74.74;103297.81;5006944;28;20030;-72
2022/03/19 08:11:45;;;;;;;17.15;8.65;;;;;;;5.88;73.34;103292.78;5004738;28;20092;-72
2022/03/19 08:14:10;;;;;;;20.23;7.57;;;;;;;6.14;71.96;103289.06;5002148;28;20033;-72
2022/03/19 08:16:35;;;;;;;17.13;7.78;;;;;;;6.42;72.13;103282.75;5000434;28;20438;-72
2022/03/19 08:19:01;;;;;;;20.80;8.45;;;;;;;6.60;71.24;103288.06;5002844;28;20037;-71
2022/03/19 08:21:26;;;;;;;22.10;8.85;;;;;;;6.96;70.92;103288.22;5001585;28;20023;-72
2022/03/19 08:23:52;;;;;;;19.60;8.63;;;;;;;7.33;69.95;103295.41;5010107;28;20511;-72
2022/03/19 08:26:18;;;;;;;16.00;8.15;;;;;;;7.58;69.14;103297.56;5003741;28;20052;-72
2022/03/19 08:28:43;;;;;;;20.75;9.50;;;;;;;7.74;68.72;103283.47;5001750;28;20504;-72
2022/03/19 08:31:08;;;;;;;19.35;8.93;;;;;;;7.97;68.15;103287.22;5001419;28;20092;-72
2022/03/19 08:33:34;;;;;;;17.30;8.55;;;;;;;8.21;66.64;103277.84;5003152;28;20034;-72
2022/03/19 08:35:59;;;;;;;17.77;8.95;;;;;;;8.18;66.13;103269.81;5001789;28;20472;-72
2022/03/19 08:41:22;;;;;;;21.25;8.68;;;;;;;8.20;65.62;103270.81;4996273;28;20091;-72
2022/03/19 08:43:47;;;;;;;17.00;8.15;;;;;;;8.38;65.53;103260.22;5011461;28;20034;-72
2022/03/19 08:46:13;;;;;;;18.00;8.93;;;;;;;8.55;65.39;103263.69;5001712;28;20038;-72
2022/03/19 08:48:38;;;;;;;25.15;11.00;;;;;;;8.45;64.07;103258.81;4999847;28;20042;-72
2022/03/19 08:53:49;;;;;;;22.88;10.55;;;;;;;8.35;63.85;103253.09;5000155;28;20076;-72
2022/03/19 08:56:15;;;;;;;16.65;8.85;;;;;;;8.37;63.96;103253.16;4999448;28;20038;-72
2022/03/19 08:58:40;;;;;;;18.02;8.35;;;;;;;8.24;64.37;103248.16;5001798;28;20030;-72
2022/03/19 09:01:06;;;;;;;18.83;9.00;;;;;;;8.02;64.15;103243.63;5001026;28;20504;-72
2022/03/19 09:03:32;;;;;;;22.67;9.52;;;;;;;7.80;65.00;103247.81;5009856;28;20522;-72
2022/03/19 09:05:58;;;;;;;20.33;9.20;;;;;;;7.63;65.30;103241.75;4995600;28;20119;-72
2022/03/19 09:08:23;;;;;;;19.45;9.38;;;;;;;7.62;65.85;103244.31;5007833;28;20079;-72
2022/03/19 09:10:48;;;;;;;20.27;9.13;;;;;;;7.67;66.06;103237.53;5009520;28;20045;-72
2022/03/19 09:13:14;;;;;;;20.73;9.07;;;;;;;7.66;65.26;103236.66;5004045;28;20034;-73
2022/03/19 09:15:40;;;;;;;19.63;8.65;;;;;;;7.64;65.70;103237.41;5001430;28;20584;-72
2022/03/19 09:18:05;;;;;;;21.73;9.40;;;;;;;7.84;65.48;103234.03;5000811;28;20163;-72
2022/03/19 09:20:32;;;;;;;17.15;8.23;;;;;;;8.01;64.81;103226.03;5005362;28;20054;-72
2022/03/19 09:22:57;;;;;;;17.05;8.35;;;;;;;8.17;63.75;103222.38;5019309;28;20041;-72
2022/03/19 09:25:22;;;;;;;16.83;8.25;;;;;;;8.20;64.49;103226.09;5020882;28;20483;-71
2022/03/19 09:27:48;;;;;;;17.67;9.52;;;;;;;8.30;63.77;103224.75;5018771;28;20482;-72
2022/03/19 09:30:14;;;;;;;18.95;8.73;;;;;;;8.65;63.59;103229.03;5021372;28;20037;-72
2022/03/19 09:32:39;;;;;;;18.73;8.68;;;;;;;8.97;63.20;103232.19;5022052;28;20033;-72
2022/03/19 09:35:05;;;;;;;17.42;8.65;;;;;;;8.94;62.33;103227.69;5018095;28;20033;-72
2022/03/19 09:37:31;;;;;;;19.20;9.38;;;;;;;8.94;62.38;103218.91;5022123;28;20497;-72
2022/03/19 09:39:57;;;;;;;20.95;10.23;;;;;;;9.00;61.66;103232.31;5007181;28;20029;-71
2022/03/19 09:42:24;;;;;;;22.42;10.75;;;;;;;8.87;61.39;103236.16;5008272;28;20041;-72
2022/03/19 09:44:52;;;;;;;21.67;10.93;;;;;;;8.84;61.06;103227.22;5009254;28;20041;-71
2022/03/19 09:47:17;;;;;;;21.17;10.95;;;;;;;8.81;61.92;103227.09;5007870;28;20449;-71
2022/03/19 09:49:43;;;;;;;23.60;11.32;;;;;;;9.21;61.36;103221.81;5009461;28;20042;-72
2022/03/19 09:52:11;;;;;;;17.92;10.50;;;;;;;9.37;60.89;103223.34;5009286;28;20041;-72
2022/03/19 09:54:37;;;;;;;21.45;11.40;;;;;;;9.50;60.94;103222.13;5008691;28;20030;-71
2022/03/19 09:57:02;;;;;;;22.70;10.88;;;;;;;9.62;59.48;103220.91;5009251;28;20037;-72
2022/03/19 09:59:30;;;;;;;20.05;10.35;;;;;;;9.69;59.85;103218.50;5008948;28;20034;-72
2022/03/19 10:01:56;;;;;;;19.25;10.40;;;;;;;9.54;60.40;103216.16;5009735;28;20038;-72
2022/03/19 10:04:22;;;;;;;19.90;9.27;;;;;;;9.10;61.60;103218.72;5009690;28;20048;-72
2022/03/19 10:09:45;;;;;;;17.00;7.90;;;;;;;8.76;61.77;103221.63;5010819;28;20042;-72
2022/03/19 10:12:13;;;;;;;11.60;7.60;;;;;;;8.82;61.58;103221.00;5009755;28;20034;-71
2022/03/19 10:14:38;;;;;;;14.75;8.02;;;;;;;8.83;61.53;103222.78;5011692;28;20026;-71
2022/03/19 10:17:04;;;;;;;16.02;7.55;;;;;;;8.83;61.09;103213.16;5009587;28;20472;-70
2022/03/19 10:19:29;;;;;;;16.40;8.70;;;;;;;8.95;61.50;103211.03;5009523;28;20399;-70
2022/03/19 10:22:06;;;;;;;17.40;8.70;;;;;;;9.07;60.79;103208.06;5013372;28;20412;-70
2022/03/19 10:24:36;;;;;;;17.92;9.02;;;;;;;8.99;60.33;103201.56;5010217;28;20038;-70
2022/03/19 10:27:01;;;;;;;16.67;8.68;;;;;;;9.08;60.13;103214.22;5009201;28;20033;-70
2022/03/19 10:29:33;;;;;;;13.50;7.40;;;;;;;9.19;59.46;103203.28;5012101;28;20026;-69
2022/03/19 10:32:01;;;;;;;15.75;8.68;;;;;;;9.43;59.32;103207.78;5012365;28;20041;-71
2022/03/19 10:34:29;;;;;;;17.77;8.75;;;;;;;9.61;58.65;103207.63;5019698;28;20170;-70
2022/03/19 10:36:54;;;;;;;19.58;8.30;;;;;;;9.61;58.57;103213.81;5023619;28;20075;-70
2022/03/19 10:39:22;;;;;;;18.27;8.48;;;;;;;9.25;58.21;103207.00;5008410;28;20116;-69
2022/03/19 10:41:48;;;;;;;15.73;8.18;;;;;;;9.30;59.38;103205.47;5012714;28;20034;-70
2022/03/19 10:44:19;;;;;;;15.95;8.77;;;;;;;9.74;58.10;103203.75;4997359;28;20037;-70
2022/03/19 10:46:56;;;;;;;16.50;8.93;;;;;;;10.02;56.37;103200.47;4998522;28;20049;-69
2022/03/19 10:49:23;;;;;;;17.40;9.40;;;;;;;10.34;56.70;103192.91;4999945;28;20040;-69
2022/03/19 10:51:54;;;;;;;14.38;8.35;;;;;;;10.63;55.79;103186.94;4998956;28;20033;-70
2022/03/19 10:54:20;;;;;;;19.60;9.20;;;;;;;10.94;56.24;103190.69;5039713;28;20038;-70
2022/03/19 10:56:47;;;;;;;16.85;9.25;;;;;;;10.93;54.61;103187.16;4997048;28;20080;-69
2022/03/19 10:59:13;;;;;;;16.45;8.93;;;;;;;10.94;54.83;103180.13;4998593;28;20022;-69
2022/03/19 11:01:39;;;;;;;15.20;8.85;;;;;;;10.86;53.43;103179.84;5016710;28;20049;-70
2022/03/19 11:04:06;;;;;;;17.27;9.35;;;;;;;10.81;53.78;103188.47;4999842;28;20038;-69
2022/03/19 11:06:37;;;;;;;14.38;8.02;;;;;;;11.13;54.66;103179.00;4996785;28;20441;-69
2022/03/19 11:09:06;;;;;;;13.80;7.90;;;;;;;11.33;53.92;103180.56;4998196;28;20089;-69
2022/03/19 11:11:53;;;;;;;14.88;7.97;;;;;;;11.38;52.51;103183.38;4999852;28;20405;-70
2022/03/19 11:14:24;;;;;;;14.02;8.20;;;;;;;11.37;52.50;103176.25;4999890;28;20046;-71
2022/03/19 11:19:45;;;;;;;15.30;8.35;;;;;;;11.26;52.94;103160.06;4996071;28;20034;-70
2022/03/19 11:22:12;;;;;;;16.20;7.93;;;;;;;10.92;52.89;103161.56;5027902;28;20044;-70
2022/03/19 11:24:53;;;;;;;14.63;8.68;;;;;;;10.62;52.95;103157.88;5009625;28;20031;-70
2022/03/19 11:27:20;;;;;;;13.15;7.88;;;;;;;10.59;53.55;103158.66;4996923;28;20473;-70
2022/03/19 11:29:45;;;;;;;14.95;8.40;;;;;;;10.88;53.36;103150.84;4999813;28;20507;-71
2022/03/19 11:32:21;;;;;;;15.32;8.05;;;;;;;11.29;51.44;103146.97;5002123;28;20038;-70
2022/03/19 11:34:48;;;;;;;12.77;8.02;;;;;;;11.39;50.91;103132.28;5003096;28;20030;-70
2022/03/19 11:37:13;;;;;;;15.40;7.55;;;;;;;11.36;50.43;103133.06;5003045;28;20041;-70
2022/03/19 11:40:28;;;;;;;14.13;8.50;;;;;;;11.32;49.85;103127.66;5001169;28;20034;-70
2022/03/19 11:42:54;;;;;;;14.05;8.50;;;;;;;11.00;49.26;103124.81;5000795;28;20088;-70
2022/03/19 11:45:20;;;;;;;18.00;7.97;;;;;;;10.82;49.65;103122.50;5000806;28;20078;-70